sensor_id;sensor_type;location;lat;lon;timestamp;pressure;altitude;pressure_sealevel;temperature;humidity
6032;BME280;3044;43.232;27.972;2023-02-28T00:01:54;44805.34;;;-143.84;84.72
6032;BME280;3044;43.232;27.972;2023-02-28T00:04:21;44820.56;;;-143.84;84.30
6032;BME280;3044;43.232;27.972;2023-02-28T00:06:48;44776.78;;;-143.84;84.23
6032;BME280;3044;43.232;27.972;2023-02-28T00:09:15;44750.13;;;-143.84;84.15
6032;BME280;3044;43.232;27.972;2023-02-28T00:11:42;44715.84;;;-143.84;84.69
6032;BME280;3044;43.232;27.972;2023-02-28T00:14:11;44786.31;;;-143.84;84.29
6032;BME280;3044;43.232;27.972;2023-02-28T00:16:38;44858.66;;;-143.84;84.09
6032;BME280;3044;43.232;27.972;2023-02-28T00:19:05;44837.72;;;-143.84;83.75
6032;BME280;3044;43.232;27.972;2023-02-28T00:21:33;44870.09;;;-143.84;83.92
6032;BME280;3044;43.232;27.972;2023-02-28T00:24:01;44856.75;;;-143.84;84.19
6032;BME280;3044;43.232;27.972;2023-02-28T00:26:28;44879.59;;;-143.84;83.66
6032;BME280;3044;43.232;27.972;2023-02-28T00:28:55;44879.59;;;-143.84;84.23
6032;BME280;3044;43.232;27.972;2023-02-28T00:31:24;44881.50;;;-143.84;83.21
6032;BME280;3044;43.232;27.972;2023-02-28T00:33:51;44862.47;;;-143.84;83.78
6032;BME280;3044;43.232;27.972;2023-02-28T00:36:18;44860.56;;;-143.84;84.16
6032;BME280;3044;43.232;27.972;2023-02-28T00:38:46;44856.75;;;-143.84;83.83
6032;BME280;3044;43.232;27.972;2023-02-28T00:41:13;44828.19;;;-143.84;84.06
6032;BME280;3044;43.232;27.972;2023-02-28T00:43:40;44828.19;;;-143.84;84.14
6032;BME280;3044;43.232;27.972;2023-02-28T00:46:08;44837.72;;;-143.84;84.49
6032;BME280;3044;43.232;27.972;2023-02-28T00:48:37;44830.09;;;-143.84;84.36
6032;BME280;3044;43.232;27.972;2023-02-28T00:51:05;44761.56;;;-143.84;84.40
6032;BME280;3044;43.232;27.972;2023-02-28T00:53:32;44710.16;;;-143.84;85.03
6032;BME280;3044;43.232;27.972;2023-02-28T00:55:59;44767.25;;;-143.84;84.69
6032;BME280;3044;43.232;27.972;2023-02-28T00:58:27;44767.25;;;-143.84;84.32
6032;BME280;3044;43.232;27.972;2023-02-28T01:00:54;44847.22;;;-143.84;83.62
6032;BME280;3044;43.232;27.972;2023-02-28T01:03:22;44911.97;;;-143.84;83.29
6032;BME280;3044;43.232;27.972;2023-02-28T01:05:51;44896.75;;;-143.84;83.57
6032;BME280;3044;43.232;27.972;2023-02-28T01:08:18;44898.66;;;-143.84;83.79
6032;BME280;3044;43.232;27.972;2023-02-28T01:10:46;44824.38;;;-143.84;84.42
6032;BME280;3044;43.232;27.972;2023-02-28T01:13:13;44824.38;;;-143.84;83.89
6032;BME280;3044;43.232;27.972;2023-02-28T01:15:43;44828.19;;;-143.84;84.18
6032;BME280;3044;43.232;27.972;2023-02-28T01:18:12;44795.81;;;-143.84;84.09
6032;BME280;3044;43.232;27.972;2023-02-28T01:20:39;44792.00;;;-143.84;84.60
6032;BME280;3044;43.232;27.972;2023-02-28T01:23:08;44847.22;;;-143.84;84.43
6032;BME280;3044;43.232;27.972;2023-02-28T01:25:36;44854.84;;;-143.84;84.23
6032;BME280;3044;43.232;27.972;2023-02-28T01:28:03;44889.13;;;-143.84;83.90
6032;BME280;3044;43.232;27.972;2023-02-28T01:30:31;44904.34;;;-143.84;83.98
6032;BME280;3044;43.232;27.972;2023-02-28T01:32:59;44913.88;;;-143.84;84.06
6032;BME280;3044;43.232;27.972;2023-02-28T01:35:26;44870.09;;;-143.84;84.17
6032;BME280;3044;43.232;27.972;2023-02-28T01:37:54;44849.13;;;-143.84;84.42
6032;BME280;3044;43.232;27.972;2023-02-28T01:40:22;44799.63;;;-143.84;84.63
6032;BME280;3044;43.232;27.972;2023-02-28T01:42:49;44809.16;;;-143.84;84.25
6032;BME280;3044;43.232;27.972;2023-02-28T01:45:21;44809.16;;;-143.84;84.47
6032;BME280;3044;43.232;27.972;2023-02-28T01:47:52;44820.56;;;-143.84;84.23
6032;BME280;3044;43.232;27.972;2023-02-28T01:50:23;44805.34;;;-143.84;84.99
6032;BME280;3044;43.232;27.972;2023-02-28T01:52:54;44750.13;;;-143.84;85.35
6032;BME280;3044;43.232;27.972;2023-02-28T01:55:24;44710.16;;;-143.84;85.08
6032;BME280;3044;43.232;27.972;2023-02-28T01:57:57;44729.19;;;-143.84;85.37
6032;BME280;3044;43.232;27.972;2023-02-28T02:00:26;44797.72;;;-143.84;84.63
6032;BME280;3044;43.232;27.972;2023-02-28T02:02:56;44828.19;;;-143.84;84.44
6032;BME280;3044;43.232;27.972;2023-02-28T02:05:26;44908.16;;;-143.84;84.00
6032;BME280;3044;43.232;27.972;2023-02-28T02:07:56;44885.31;;;-143.84;83.98
6032;BME280;3044;43.232;27.972;2023-02-28T02:10:31;44917.69;;;-143.84;84.12
6032;BME280;3044;43.232;27.972;2023-02-28T02:13:08;44917.69;;;-143.84;83.96
6032;BME280;3044;43.232;27.972;2023-02-28T02:15:41;44923.41;;;-143.84;83.76
6032;BME280;3044;43.232;27.972;2023-02-28T02:18:16;44875.78;;;-143.84;84.17
6032;BME280;3044;43.232;27.972;2023-02-28T02:24:33;44889.13;;;-143.84;84.01
6032;BME280;3044;43.232;27.972;2023-02-28T02:27:22;44938.63;;;-143.84;83.26
6032;BME280;3044;43.232;27.972;2023-02-28T02:33:10;44906.25;;;-143.84;83.38
6032;BME280;3044;43.232;27.972;2023-02-28T02:35:47;44946.25;;;-143.84;84.09
6032;BME280;3044;43.232;27.972;2023-02-28T02:38:20;44951.97;;;-143.84;83.76
6032;BME280;3044;43.232;27.972;2023-02-28T02:40:56;44927.19;;;-143.84;83.55
6032;BME280;3044;43.232;27.972;2023-02-28T02:43:28;44967.19;;;-143.84;83.41
6032;BME280;3044;43.232;27.972;2023-02-28T02:45:59;44982.41;;;-143.84;83.39
6032;BME280;3044;43.232;27.972;2023-02-28T02:48:30;44963.38;;;-143.84;83.35
6032;BME280;3044;43.232;27.972;2023-02-28T02:51:05;44955.75;;;-143.84;83.58
6032;BME280;3044;43.232;27.972;2023-02-28T02:53:40;44942.44;;;-143.84;83.72
6032;BME280;3044;43.232;27.972;2023-02-28T02:56:09;44955.75;;;-143.84;83.61
6032;BME280;3044;43.232;27.972;2023-02-28T02:58:41;44955.75;;;-143.84;83.49
6032;BME280;3044;43.232;27.972;2023-02-28T03:01:12;44980.53;;;-143.84;83.53
6032;BME280;3044;43.232;27.972;2023-02-28T03:03:41;44978.63;;;-143.84;83.09
6032;BME280;3044;43.232;27.972;2023-02-28T03:06:10;44950.06;;;-143.84;83.41
6032;BME280;3044;43.232;27.972;2023-02-28T03:08:38;44946.25;;;-143.84;83.56
6032;BME280;3044;43.232;27.972;2023-02-28T03:11:06;44934.81;;;-143.84;83.79
6032;BME280;3044;43.232;27.972;2023-02-28T03:13:49;44950.06;;;-143.84;83.82
6032;BME280;3044;43.232;27.972;2023-02-28T03:16:39;44955.75;;;-143.84;83.77
6032;BME280;3044;43.232;27.972;2023-02-28T03:19:25;44887.22;;;-143.84;84.22
6032;BME280;3044;43.232;27.972;2023-02-28T03:22:14;44883.41;;;-143.84;84.37
6032;BME280;3044;43.232;27.972;2023-02-28T03:24:49;44866.28;;;-143.84;83.62
6032;BME280;3044;43.232;27.972;2023-02-28T03:27:24;44904.34;;;-143.84;84.29
6032;BME280;3044;43.232;27.972;2023-02-28T03:30:00;44942.44;;;-143.84;84.03
6032;BME280;3044;43.232;27.972;2023-02-28T03:32:34;44866.28;;;-143.84;84.26
6032;BME280;3044;43.232;27.972;2023-02-28T03:35:08;44885.31;;;-143.84;84.37
6032;BME280;3044;43.232;27.972;2023-02-28T03:37:40;44824.38;;;-143.84;85.07
6032;BME280;3044;43.232;27.972;2023-02-28T03:40:11;44753.94;;;-143.84;84.75
6032;BME280;3044;43.232;27.972;2023-02-28T03:42:41;44727.28;;;-143.84;85.63
6032;BME280;3044;43.232;27.972;2023-02-28T03:45:13;44681.59;;;-143.84;85.87
6032;BME280;3044;43.232;27.972;2023-02-28T03:47:46;44723.47;;;-143.84;85.31
6032;BME280;3044;43.232;27.972;2023-02-28T03:50:19;44731.09;;;-143.84;85.57
6032;BME280;3044;43.232;27.972;2023-02-28T03:52:51;44694.91;;;-143.84;85.77
6032;BME280;3044;43.232;27.972;2023-02-28T03:55:20;44670.16;;;-143.84;85.83
6032;BME280;3044;43.232;27.972;2023-02-28T03:57:56;44626.38;;;-143.84;85.93
6032;BME280;3044;43.232;27.972;2023-02-28T04:00:27;44582.59;;;-143.84;85.88
6032;BME280;3044;43.232;27.972;2023-02-28T04:02:56;44689.19;;;-143.84;85.67
6032;BME280;3044;43.232;27.972;2023-02-28T04:05:24;44712.06;;;-143.84;84.93
6032;BME280;3044;43.232;27.972;2023-02-28T04:07:53;44774.88;;;-143.84;85.16
6032;BME280;3044;43.232;27.972;2023-02-28T04:10:20;44835.81;;;-143.84;84.58
6032;BME280;3044;43.232;27.972;2023-02-28T04:12:48;44824.38;;;-143.84;84.73
6032;BME280;3044;43.232;27.972;2023-02-28T04:15:15;44811.06;;;-143.84;84.77
6032;BME280;3044;43.232;27.972;2023-02-28T04:17:42;44740.59;;;-143.84;85.16
6032;BME280;3044;43.232;27.972;2023-02-28T04:20:10;44807.25;;;-143.84;85.08
6032;BME280;3044;43.232;27.972;2023-02-28T04:22:38;44856.75;;;-143.84;84.43
6032;BME280;3044;43.232;27.972;2023-02-28T04:25:07;44868.19;;;-143.84;84.50
6032;BME280;3044;43.232;27.972;2023-02-28T04:27:34;44851.03;;;-143.84;84.49
6032;BME280;3044;43.232;27.972;2023-02-28T04:30:02;44868.19;;;-143.84;84.80
6032;BME280;3044;43.232;27.972;2023-02-28T04:32:29;44898.66;;;-143.84;84.66
6032;BME280;3044;43.232;27.972;2023-02-28T04:34:56;44839.63;;;-143.84;84.38
6032;BME280;3044;43.232;27.972;2023-02-28T04:37:24;44847.22;;;-143.84;84.69
6032;BME280;3044;43.232;27.972;2023-02-28T04:39:54;44864.38;;;-143.84;84.66
6032;BME280;3044;43.232;27.972;2023-02-28T04:42:22;44811.06;;;-143.84;84.69
6032;BME280;3044;43.232;27.972;2023-02-28T04:44:49;44828.19;;;-143.84;85.19
6032;BME280;3044;43.232;27.972;2023-02-28T04:47:17;44778.69;;;-143.84;85.02
6032;BME280;3044;43.232;27.972;2023-02-28T04:49:44;44763.47;;;-143.84;85.37
6032;BME280;3044;43.232;27.972;2023-02-28T04:52:11;44637.78;;;-143.84;86.27
6032;BME280;3044;43.232;27.972;2023-02-28T04:54:38;44673.97;;;-143.84;85.72
6032;BME280;3044;43.232;27.972;2023-02-28T04:57:05;44559.72;;;-143.84;86.20
6032;BME280;3044;43.232;27.972;2023-02-28T04:59:34;44489.28;;;-143.84;86.62
6032;BME280;3044;43.232;27.972;2023-02-28T05:02:01;44485.47;;;-143.84;86.82
6032;BME280;3044;43.232;27.972;2023-02-28T05:04:32;44327.47;;;-143.84;87.02
6032;BME280;3044;43.232;27.972;2023-02-28T05:07:00;44226.56;;;-143.84;87.34
6032;BME280;3044;43.232;27.972;2023-02-28T05:09:27;44148.53;;;-143.84;87.61
6032;BME280;3044;43.232;27.972;2023-02-28T05:11:55;44121.88;;;-143.84;87.51
6032;BME280;3044;43.232;27.972;2023-02-28T05:14:22;44036.22;;;-143.84;87.96
6032;BME280;3044;43.232;27.972;2023-02-28T05:16:51;43990.53;;;-143.84;88.60
6032;BME280;3044;43.232;27.972;2023-02-28T05:19:18;43956.25;;;-143.84;88.70
6032;BME280;3044;43.232;27.972;2023-02-28T05:21:51;43950.53;;;-143.84;88.73
6032;BME280;3044;43.232;27.972;2023-02-28T05:24:18;43931.50;;;-143.84;88.65
6032;BME280;3044;43.232;27.972;2023-02-28T05:26:50;43910.56;;;-143.84;88.76
6032;BME280;3044;43.232;27.972;2023-02-28T05:29:18;43910.56;;;-143.84;88.95
6032;BME280;3044;43.232;27.972;2023-02-28T05:31:46;43895.34;;;-143.84;89.00
6032;BME280;3044;43.232;27.972;2023-02-28T05:34:15;43904.84;;;-143.84;88.84
6032;BME280;3044;43.232;27.972;2023-02-28T05:36:42;43925.78;;;-143.84;88.48
6032;BME280;3044;43.232;27.972;2023-02-28T05:39:10;43906.75;;;-143.84;88.99
6032;BME280;3044;43.232;27.972;2023-02-28T05:41:40;43912.47;;;-143.84;88.66
6032;BME280;3044;43.232;27.972;2023-02-28T05:44:07;43864.88;;;-143.84;88.66
6032;BME280;3044;43.232;27.972;2023-02-28T05:46:35;43891.53;;;-143.84;88.84
6032;BME280;3044;43.232;27.972;2023-02-28T05:49:02;43866.78;;;-143.84;88.80
6032;BME280;3044;43.232;27.972;2023-02-28T05:51:31;43874.41;;;-143.84;89.18
6032;BME280;3044;43.232;27.972;2023-02-28T05:54:00;43853.47;;;-143.84;89.07
6032;BME280;3044;43.232;27.972;2023-02-28T05:56:27;43935.31;;;-143.84;88.35
6032;BME280;3044;43.232;27.972;2023-02-28T05:58:55;43923.91;;;-143.84;88.20
6032;BME280;3044;43.232;27.972;2023-02-28T06:01:24;44040.00;;;-143.84;88.12
6032;BME280;3044;43.232;27.972;2023-02-28T06:03:58;43990.53;;;-143.84;88.35
6032;BME280;3044;43.232;27.972;2023-02-28T06:06:25;43899.16;;;-143.84;88.48
6032;BME280;3044;43.232;27.972;2023-02-28T06:08:54;43803.97;;;-143.84;89.57
6032;BME280;3044;43.232;27.972;2023-02-28T06:11:21;43802.06;;;-143.84;89.87
6032;BME280;3044;43.232;27.972;2023-02-28T06:13:53;43809.69;;;-143.84;90.91
6032;BME280;3044;43.232;27.972;2023-02-28T06:16:21;43802.06;;;-143.84;91.49
6032;BME280;3044;43.232;27.972;2023-02-28T06:18:49;43855.38;;;-143.84;91.77
6032;BME280;3044;43.232;27.972;2023-02-28T06:21:16;43845.84;;;-143.84;92.13
6032;BME280;3044;43.232;27.972;2023-02-28T06:23:43;43868.69;;;-143.84;92.51
6032;BME280;3044;43.232;27.972;2023-02-28T06:26:11;43887.72;;;-143.84;92.37
6032;BME280;3044;43.232;27.972;2023-02-28T06:28:39;43862.97;;;-143.84;93.17
6032;BME280;3044;43.232;27.972;2023-02-28T06:31:07;43902.97;;;-143.84;93.45
6032;BME280;3044;43.232;27.972;2023-02-28T06:33:35;43889.63;;;-143.84;93.03
6032;BME280;3044;43.232;27.972;2023-02-28T06:36:02;43883.91;;;-143.84;93.55
6032;BME280;3044;43.232;27.972;2023-02-28T06:38:30;43887.72;;;-143.84;93.34
6032;BME280;3044;43.232;27.972;2023-02-28T06:40:58;43866.78;;;-143.84;93.37
6032;BME280;3044;43.232;27.972;2023-02-28T06:43:28;43891.53;;;-143.84;93.41
6032;BME280;3044;43.232;27.972;2023-02-28T06:45:57;43880.13;;;-143.84;93.13
6032;BME280;3044;43.232;27.972;2023-02-28T06:48:26;43887.72;;;-143.84;93.12
6032;BME280;3044;43.232;27.972;2023-02-28T06:51:01;43883.91;;;-143.84;93.42
6032;BME280;3044;43.232;27.972;2023-02-28T06:53:28;43885.81;;;-143.84;93.54
6032;BME280;3044;43.232;27.972;2023-02-28T06:55:55;43904.84;;;-143.84;93.36
6032;BME280;3044;43.232;27.972;2023-02-28T06:58:22;43920.09;;;-143.84;93.40
6032;BME280;3044;43.232;27.972;2023-02-28T07:00:52;43904.84;;;-143.84;93.45
6032;BME280;3044;43.232;27.972;2023-02-28T07:03:19;43902.97;;;-143.84;93.64
6032;BME280;3044;43.232;27.972;2023-02-28T07:05:46;43904.84;;;-143.84;93.34
6032;BME280;3044;43.232;27.972;2023-02-28T07:08:14;43902.97;;;-143.84;93.45
6032;BME280;3044;43.232;27.972;2023-02-28T07:10:41;43887.72;;;-143.84;93.71
6032;BME280;3044;43.232;27.972;2023-02-28T07:13:09;43906.75;;;-143.84;93.59
6032;BME280;3044;43.232;27.972;2023-02-28T07:15:37;43916.28;;;-143.84;94.17
6032;BME280;3044;43.232;27.972;2023-02-28T07:18:05;43918.19;;;-143.84;94.28
6032;BME280;3044;43.232;27.972;2023-02-28T07:20:32;43922.00;;;-143.84;93.65
6032;BME280;3044;43.232;27.972;2023-02-28T07:23:00;43920.09;;;-143.84;93.69
6032;BME280;3044;43.232;27.972;2023-02-28T07:25:28;43931.50;;;-143.84;94.11
6032;BME280;3044;43.232;27.972;2023-02-28T07:27:56;43899.16;;;-143.84;93.22
6032;BME280;3044;43.232;27.972;2023-02-28T07:30:24;43899.16;;;-143.84;93.05
6032;BME280;3044;43.232;27.972;2023-02-28T07:32:51;43876.31;;;-143.84;93.17
6032;BME280;3044;43.232;27.972;2023-02-28T07:35:21;43868.69;;;-143.84;91.71
6032;BME280;3044;43.232;27.972;2023-02-28T07:37:49;43828.72;;;-143.84;91.23
6032;BME280;3044;43.232;27.972;2023-02-28T07:40:17;43830.63;;;-143.84;91.48
6032;BME280;3044;43.232;27.972;2023-02-28T07:42:44;43830.63;;;-143.84;91.15
6032;BME280;3044;43.232;27.972;2023-02-28T07:45:11;43809.69;;;-143.84;91.21
6032;BME280;3044;43.232;27.972;2023-02-28T07:47:38;43805.88;;;-143.84;90.08
6032;BME280;3044;43.232;27.972;2023-02-28T07:50:06;43800.16;;;-143.84;89.97
6032;BME280;3044;43.232;27.972;2023-02-28T07:52:36;43803.97;;;-143.84;90.24
6032;BME280;3044;43.232;27.972;2023-02-28T07:55:03;43815.41;;;-143.84;90.37
6032;BME280;3044;43.232;27.972;2023-02-28T07:57:31;43813.50;;;-143.84;90.40
6032;BME280;3044;43.232;27.972;2023-02-28T07:59:58;43821.09;;;-143.84;89.95
6032;BME280;3044;43.232;27.972;2023-02-28T08:02:26;43805.88;;;-143.84;90.75
6032;BME280;3044;43.232;27.972;2023-02-28T08:04:53;43849.66;;;-143.84;90.56
6032;BME280;3044;43.232;27.972;2023-02-28T08:07:20;43792.56;;;-143.84;90.13
6032;BME280;3044;43.232;27.972;2023-02-28T08:09:48;43788.75;;;-143.84;90.37
6032;BME280;3044;43.232;27.972;2023-02-28T08:12:16;43802.06;;;-143.84;89.35
6032;BME280;3044;43.232;27.972;2023-02-28T08:14:43;43765.91;;;-143.84;89.00
6032;BME280;3044;43.232;27.972;2023-02-28T08:17:10;43796.34;;;-143.84;88.62
6032;BME280;3044;43.232;27.972;2023-02-28T08:19:38;44089.50;;;-143.84;86.79
6032;BME280;3044;43.232;27.972;2023-02-28T08:22:05;44049.53;;;-143.84;87.13
6032;BME280;3044;43.232;27.972;2023-02-28T08:24:33;44093.31;;;-143.84;87.20
6032;BME280;3044;43.232;27.972;2023-02-28T08:27:01;44150.41;;;-143.84;86.41
6032;BME280;3044;43.232;27.972;2023-02-28T08:29:29;44060.94;;;-143.84;86.75
6032;BME280;3044;43.232;27.972;2023-02-28T08:31:56;44198.00;;;-143.84;86.79
6032;BME280;3044;43.232;27.972;2023-02-28T08:34:24;44110.44;;;-143.84;86.77
6032;BME280;3044;43.232;27.972;2023-02-28T08:36:51;43990.53;;;-143.84;87.19
6032;BME280;3044;43.232;27.972;2023-02-28T08:39:18;44186.59;;;-143.84;86.85
6032;BME280;3044;43.232;27.972;2023-02-28T08:41:45;44133.28;;;-143.84;86.37
6032;BME280;3044;43.232;27.972;2023-02-28T08:44:14;44276.06;;;-143.84;86.51
6032;BME280;3044;43.232;27.972;2023-02-28T08:46:41;44266.53;;;-143.84;86.07
6032;BME280;3044;43.232;27.972;2023-02-28T08:49:10;44258.94;;;-143.84;86.59
6032;BME280;3044;43.232;27.972;2023-02-28T08:51:38;44394.09;;;-143.84;85.54
6032;BME280;3044;43.232;27.972;2023-02-28T08:54:05;44460.72;;;-143.84;85.31
6032;BME280;3044;43.232;27.972;2023-02-28T08:56:32;44601.63;;;-143.84;85.35
6032;BME280;3044;43.232;27.972;2023-02-28T08:58:59;44592.09;;;-143.84;85.11
6032;BME280;3044;43.232;27.972;2023-02-28T09:01:29;44721.56;;;-143.84;84.63
6032;BME280;3044;43.232;27.972;2023-02-28T09:03:57;44856.75;;;-143.84;84.18
6032;BME280;3044;43.232;27.972;2023-02-28T09:06:25;44809.16;;;-143.84;84.06
6032;BME280;3044;43.232;27.972;2023-02-28T09:08:55;44717.75;;;-143.84;84.57
6032;BME280;3044;43.232;27.972;2023-02-28T09:11:24;44704.44;;;-143.84;84.62
6032;BME280;3044;43.232;27.972;2023-02-28T09:13:51;44759.66;;;-143.84;84.40
6032;BME280;3044;43.232;27.972;2023-02-28T09:16:18;44782.50;;;-143.84;84.15
6032;BME280;3044;43.232;27.972;2023-02-28T09:18:47;44805.34;;;-143.84;83.89
6032;BME280;3044;43.232;27.972;2023-02-28T09:21:16;44792.00;;;-143.84;83.98
6032;BME280;3044;43.232;27.972;2023-02-28T09:23:44;44839.63;;;-143.84;83.78
6032;BME280;3044;43.232;27.972;2023-02-28T09:26:13;44944.34;;;-143.84;82.98
6032;BME280;3044;43.232;27.972;2023-02-28T09:28:41;44976.72;;;-143.84;82.76
6032;BME280;3044;43.232;27.972;2023-02-28T09:31:12;44942.44;;;-143.84;82.52
6032;BME280;3044;43.232;27.972;2023-02-28T09:33:40;44978.63;;;-143.84;82.58
6032;BME280;3044;43.232;27.972;2023-02-28T09:36:09;45018.59;;;-143.84;81.01
6032;BME280;3044;43.232;27.972;2023-02-28T09:38:36;45039.53;;;-143.84;81.34
6032;BME280;3044;43.232;27.972;2023-02-28T09:41:10;45079.53;;;-143.84;80.97
6032;BME280;3044;43.232;27.972;2023-02-28T09:43:42;45056.69;;;-143.84;80.68
6032;BME280;3044;43.232;27.972;2023-02-28T09:46:18;45031.94;;;-143.84;80.87
6032;BME280;3044;43.232;27.972;2023-02-28T09:48:50;45026.22;;;-143.84;81.90
6032;BME280;3044;43.232;27.972;2023-02-28T09:51:32;45043.34;;;-143.84;81.39
6032;BME280;3044;43.232;27.972;2023-02-28T09:54:01;45041.44;;;-143.84;81.64
6032;BME280;3044;43.232;27.972;2023-02-28T09:56:32;45037.66;;;-143.84;81.52
6032;BME280;3044;43.232;27.972;2023-02-28T09:59:05;45064.31;;;-143.84;81.18
6032;BME280;3044;43.232;27.972;2023-02-28T10:01:40;45035.75;;;-143.84;81.58
6032;BME280;3044;43.232;27.972;2023-02-28T10:04:19;45050.97;;;-143.84;81.44
6032;BME280;3044;43.232;27.972;2023-02-28T10:06:53;45073.81;;;-143.84;81.04
6032;BME280;3044;43.232;27.972;2023-02-28T10:09:24;45014.78;;;-143.84;81.58
6032;BME280;3044;43.232;27.972;2023-02-28T10:11:54;45060.50;;;-143.84;81.38
6032;BME280;3044;43.232;27.972;2023-02-28T10:14:26;45070.00;;;-143.84;81.01
6032;BME280;3044;43.232;27.972;2023-02-28T10:16:56;45096.66;;;-143.84;80.77
6032;BME280;3044;43.232;27.972;2023-02-28T10:19:30;45050.97;;;-143.84;80.45
6032;BME280;3044;43.232;27.972;2023-02-28T10:22:03;45056.69;;;-143.84;80.49
6032;BME280;3044;43.232;27.972;2023-02-28T10:24:35;45050.97;;;-143.84;81.51
6032;BME280;3044;43.232;27.972;2023-02-28T10:27:13;45041.44;;;-143.84;81.02
6032;BME280;3044;43.232;27.972;2023-02-28T10:29:43;45041.44;;;-143.84;81.33
6032;BME280;3044;43.232;27.972;2023-02-28T10:32:14;45056.69;;;-143.84;81.71
6032;BME280;3044;43.232;27.972;2023-02-28T10:34:42;45037.66;;;-143.84;81.63
6032;BME280;3044;43.232;27.972;2023-02-28T10:37:11;45022.41;;;-143.84;81.61
6032;BME280;3044;43.232;27.972;2023-02-28T10:39:42;45037.66;;;-143.84;81.93
6032;BME280;3044;43.232;27.972;2023-02-28T10:42:23;45041.44;;;-143.84;82.31
6032;BME280;3044;43.232;27.972;2023-02-28T10:45:12;44993.84;;;-143.84;82.10
6032;BME280;3044;43.232;27.972;2023-02-28T10:47:49;44974.81;;;-143.84;82.32
6032;BME280;3044;43.232;27.972;2023-02-28T10:50:30;44988.13;;;-143.84;82.55
6032;BME280;3044;43.232;27.972;2023-02-28T10:53:13;44984.31;;;-143.84;83.05
6032;BME280;3044;43.232;27.972;2023-02-28T10:55:42;44894.84;;;-143.84;82.99
6032;BME280;3044;43.232;27.972;2023-02-28T10:58:22;44976.72;;;-143.84;82.90
6032;BME280;3044;43.232;27.972;2023-02-28T11:00:51;44938.63;;;-143.84;82.79
6032;BME280;3044;43.232;27.972;2023-02-28T11:03:25;45010.97;;;-143.84;82.33
6032;BME280;3044;43.232;27.972;2023-02-28T11:05:55;44969.09;;;-143.84;82.64
6032;BME280;3044;43.232;27.972;2023-02-28T11:08:24;45007.19;;;-143.84;82.49
6032;BME280;3044;43.232;27.972;2023-02-28T11:10:55;44959.56;;;-143.84;82.56
6032;BME280;3044;43.232;27.972;2023-02-28T11:13:27;44931.00;;;-143.84;83.06
6032;BME280;3044;43.232;27.972;2023-02-28T11:15:57;44885.31;;;-143.84;83.58
6032;BME280;3044;43.232;27.972;2023-02-28T11:18:29;44881.50;;;-143.84;83.35
6032;BME280;3044;43.232;27.972;2023-02-28T11:20:59;44955.75;;;-143.84;83.09
6032;BME280;3044;43.232;27.972;2023-02-28T11:23:31;44932.91;;;-143.84;82.85
6032;BME280;3044;43.232;27.972;2023-02-28T11:26:01;44885.31;;;-143.84;83.65
6032;BME280;3044;43.232;27.972;2023-02-28T11:28:31;44976.72;;;-143.84;82.72
6032;BME280;3044;43.232;27.972;2023-02-28T11:31:05;45045.25;;;-143.84;81.92
6032;BME280;3044;43.232;27.972;2023-02-28T11:33:40;45022.41;;;-143.84;81.55
6032;BME280;3044;43.232;27.972;2023-02-28T11:36:12;45071.91;;;-143.84;81.41
6032;BME280;3044;43.232;27.972;2023-02-28T11:38:42;45016.69;;;-143.84;80.99
6032;BME280;3044;43.232;27.972;2023-02-28T11:41:21;45087.16;;;-143.84;81.11
6032;BME280;3044;43.232;27.972;2023-02-28T11:44:08;45068.13;;;-143.84;80.81
6032;BME280;3044;43.232;27.972;2023-02-28T11:46:42;45064.31;;;-143.84;80.79
6032;BME280;3044;43.232;27.972;2023-02-28T11:49:29;45068.13;;;-143.84;81.47
6032;BME280;3044;43.232;27.972;2023-02-28T11:52:00;45081.44;;;-143.84;80.75
6032;BME280;3044;43.232;27.972;2023-02-28T11:57:35;45060.50;;;-143.84;81.02
6032;BME280;3044;43.232;27.972;2023-02-28T12:00:19;45062.41;;;-143.84;80.93
6032;BME280;3044;43.232;27.972;2023-02-28T12:03:03;45060.50;;;-143.84;80.84
6032;BME280;3044;43.232;27.972;2023-02-28T12:05:40;45092.88;;;-143.84;81.09
6032;BME280;3044;43.232;27.972;2023-02-28T12:08:25;45062.41;;;-143.84;80.72
6032;BME280;3044;43.232;27.972;2023-02-28T12:11:02;45043.34;;;-143.84;81.30
6032;BME280;3044;43.232;27.972;2023-02-28T12:13:40;45056.69;;;-143.84;81.48
6032;BME280;3044;43.232;27.972;2023-02-28T12:16:30;45056.69;;;-143.84;81.01
6032;BME280;3044;43.232;27.972;2023-02-28T12:19:15;45049.06;;;-143.84;80.92
6032;BME280;3044;43.232;27.972;2023-02-28T12:21:56;45073.81;;;-143.84;80.96
6032;BME280;3044;43.232;27.972;2023-02-28T12:24:44;45068.13;;;-143.84;80.84
6032;BME280;3044;43.232;27.972;2023-02-28T12:27:19;45075.72;;;-143.84;81.33
6032;BME280;3044;43.232;27.972;2023-02-28T12:29:51;45068.13;;;-143.84;81.02
6032;BME280;3044;43.232;27.972;2023-02-28T12:32:23;45047.16;;;-143.84;80.51
6032;BME280;3044;43.232;27.972;2023-02-28T12:34:57;45066.22;;;-143.84;80.87
6032;BME280;3044;43.232;27.972;2023-02-28T12:37:29;45054.78;;;-143.84;80.83
6032;BME280;3044;43.232;27.972;2023-02-28T12:40:01;45075.72;;;-143.84;81.01
6032;BME280;3044;43.232;27.972;2023-02-28T12:42:36;45098.56;;;-143.84;80.53
6032;BME280;3044;43.232;27.972;2023-02-28T12:45:10;45056.69;;;-143.84;81.18
6032;BME280;3044;43.232;27.972;2023-02-28T12:47:42;45068.13;;;-143.84;81.28
6032;BME280;3044;43.232;27.972;2023-02-28T12:50:11;45079.53;;;-143.84;81.50
6032;BME280;3044;43.232;27.972;2023-02-28T12:52:43;45068.13;;;-143.84;81.90
6032;BME280;3044;43.232;27.972;2023-02-28T12:55:21;45022.41;;;-143.84;82.68
6032;BME280;3044;43.232;27.972;2023-02-28T12:58:01;45033.84;;;-143.84;82.27
6032;BME280;3044;43.232;27.972;2023-02-28T13:00:35;45028.13;;;-143.84;82.11
6032;BME280;3044;43.232;27.972;2023-02-28T13:03:22;45003.38;;;-143.84;82.76
6032;BME280;3044;43.232;27.972;2023-02-28T13:06:23;44993.84;;;-143.84;82.52
6032;BME280;3044;43.232;27.972;2023-02-28T13:09:02;44997.66;;;-143.84;82.91
6032;BME280;3044;43.232;27.972;2023-02-28T13:11:33;45037.66;;;-143.84;82.69
6032;BME280;3044;43.232;27.972;2023-02-28T13:14:20;45007.19;;;-143.84;82.55
6032;BME280;3044;43.232;27.972;2023-02-28T13:16:56;45007.19;;;-143.84;82.69
6032;BME280;3044;43.232;27.972;2023-02-28T13:19:25;45003.38;;;-143.84;83.15